METAR rapporten vliegvelden

   
EHVK - Volkel Rnlafb, Netherlands
Afstand tot: ZW 18 km
Gewijzigd: 03-08-2021 18:25
Bewolking  
Bewolking  
   Wind: NNO 5.6 km/h
Wind: NNO 5.6 km/h
Temperatuur: 18°C
Dauwpunt: 12°C
Vochtigheid: 68%
Barometer: 1012 hPa
Bewolking: Bewolking
Zicht: meer dan 10 km
Bewolking: Bewolking 4900 ft
EHVK 031625Z AUTO 03003KT 330V050 9999 OVC049 18/12 Q1012 BLU
EDLV - Niederrhein, Germany
Afstand tot: ZO 25 km
Gewijzigd: 03-08-2021 18:20
Gedeeltelijk bewolkt  
Gedeeltelijk bewolkt  
   Wind: varieert 5.6 km/h
Wind: varieert 5.6 km/h
Temperatuur: 19°C
Dauwpunt: 12°C
Vochtigheid: 64%
Barometer: 1012 hPa
Bewolking: Gedeeltelijk bewolkt
Zicht: meer dan 10 km
Bewolking: Gedeeltelijk bewolkt 3500 ft
EDLV 031620Z VRB03KT 9999 SCT035 19/12 Q1012
EHDL - Deelen Rnlafb, Netherlands
Afstand tot: N 35 km
Gewijzigd: 03-08-2021 18:25
Bewolking  
Bewolking  
   Wind: Noorden 5.6 km/h
Wind: Noorden 5.6 km/h
Temperatuur: 17°C
Dauwpunt: 13°C
Vochtigheid: 77%
Barometer: 1013 hPa
Bewolking: Bewolking
Zicht: meer dan 10 km
Bewolking: Bewolking 4800 ft
EHDL 031625Z AUTO 01003KT 350V070 9999 OVC048 17/13 Q1013 BLU
EHEH - Eindhoven Rnlafb, Netherlands
Afstand tot: ZW 48 km
Gewijzigd: 03-08-2021 18:25
Bewolking  
Bewolking  
   Wind: NNO 11.1 km/h
Wind: NNO 11.1 km/h
Temperatuur: 20°C
Dauwpunt: 13°C
Vochtigheid: 64%
Barometer: 1012 hPa
Bewolking: Bewolking
Zicht: meer dan 10 km
Bewolking: Licht bewolkt 5800 ft,
Gedeeltelijk bewolkt 6400 ft,
Bewolking 8500 ft
EHEH 031625Z AUTO 03006KT 340V060 9999 FEW058 SCT064 OVC085 20/13 Q1012 BLU NOSIG
EHGR - Gilze-Rijen Rnla, Netherlands
Afstand tot: WZW 70 km
Gewijzigd: 03-08-2021 18:25
Bewolking  
Bewolking  
   Wind: Oosten 7.4 km/h
Wind: Oosten 7.4 km/h
Temperatuur: 20°C
Dauwpunt: 11°C
Vochtigheid: 56%
Barometer: 1012 hPa
Bewolking: Bewolking
Zicht: meer dan 10 km
Bewolking: Bewolking 8900 ft
EHGR 031625Z AUTO 09004KT 070V140 9999 OVC089 20/11 Q1012 BLU
EBBL - Kleine-Brogel(Ba, Belgium
Afstand tot: ZZW 71 km
Gewijzigd: 03-08-2021 18:25
Grotendeels bewolkt  
Grotendeels bewolkt  
   Wind: Oosten 5.6 km/h
Wind: Oosten 5.6 km/h
Temperatuur: 20°C
Dauwpunt: 12°C
Vochtigheid: 60%
Barometer: 1012 hPa
Bewolking: Grotendeels bewolkt
Zicht: meer dan 10 km
Bewolking: Grotendeels bewolkt 3600 ft
EBBL 031625Z AUTO 09003KT 9999 BKN036/// 20/12 Q1012 BLU

Script ontwikkeld door  Saratoga-weather.org Aangepast voor de template door  Weerstation Leuven

U vindt ons ook hier:

Het Weer Aktueel

European Weather Network

WeatherCloud

Weather Underground

Benelux Weer Netwerk

Apparatuur in gebruik:

Weerstation
Davis VP2

Weerprogramma
consoleWD

Weercomputer
Raspberry

Webleverancier
Stef van Bakel koeltechniek

Davis VP2

consoleWD

Raspberry

Stef van Bakel koeltechniek